sensor_id;sensor_type;location;lat;lon;timestamp;P1;durP1;ratioP1;P2;durP2;ratioP2
43803;SDS011;29430;52.924;-2.388;2023-11-21T00:02:04;3.03;;;1.58;;
43803;SDS011;29430;52.924;-2.388;2023-11-21T00:06:56;2.63;;;1.45;;
43803;SDS011;29430;52.924;-2.388;2023-11-21T00:11:48;3.72;;;2.10;;
43803;SDS011;29430;52.924;-2.388;2023-11-21T00:16:39;3.58;;;1.55;;
43803;SDS011;29430;52.924;-2.388;2023-11-21T00:21:31;3.30;;;1.75;;
43803;SDS011;29430;52.924;-2.388;2023-11-21T00:26:23;3.25;;;1.48;;
43803;SDS011;29430;52.924;-2.388;2023-11-21T00:31:15;3.63;;;1.40;;
43803;SDS011;29430;52.924;-2.388;2023-11-21T00:36:07;3.55;;;1.98;;
43803;SDS011;29430;52.924;-2.388;2023-11-21T00:41:00;4.90;;;1.98;;
43803;SDS011;29430;52.924;-2.388;2023-11-21T00:45:52;2.78;;;1.17;;
43803;SDS011;29430;52.924;-2.388;2023-11-21T00:50:44;3.60;;;1.13;;
43803;SDS011;29430;52.924;-2.388;2023-11-21T00:55:36;2.00;;;0.90;;
43803;SDS011;29430;52.924;-2.388;2023-11-21T01:00:32;2.40;;;0.60;;
43803;SDS011;29430;52.924;-2.388;2023-11-21T01:05:24;2.15;;;0.65;;
43803;SDS011;29430;52.924;-2.388;2023-11-21T01:10:16;1.55;;;0.40;;
43803;SDS011;29430;52.924;-2.388;2023-11-21T01:15:08;1.00;;;0.30;;
43803;SDS011;29430;52.924;-2.388;2023-11-21T01:20:03;0.57;;;0.10;;
43803;SDS011;29430;52.924;-2.388;2023-11-21T01:25:04;1.67;;;0.17;;
43803;SDS011;29430;52.924;-2.388;2023-11-21T01:29:58;0.63;;;0.10;;
43803;SDS011;29430;52.924;-2.388;2023-11-21T01:34:50;0.43;;;0.10;;
43803;SDS011;29430;52.924;-2.388;2023-11-21T01:39:43;0.50;;;0.20;;
43803;SDS011;29430;52.924;-2.388;2023-11-21T01:44:35;0.80;;;0.30;;
43803;SDS011;29430;52.924;-2.388;2023-11-21T01:49:27;1.75;;;0.20;;
43803;SDS011;29430;52.924;-2.388;2023-11-21T01:54:19;0.52;;;0.10;;
43803;SDS011;29430;52.924;-2.388;2023-11-21T01:59:12;0.45;;;0.10;;
43803;SDS011;29430;52.924;-2.388;2023-11-21T02:04:09;0.60;;;0.00;;
43803;SDS011;29430;52.924;-2.388;2023-11-21T02:09:02;0.28;;;0.10;;
43803;SDS011;29430;52.924;-2.388;2023-11-21T02:13:57;0.68;;;0.08;;
43803;SDS011;29430;52.924;-2.388;2023-11-21T02:18:51;0.22;;;0.08;;
43803;SDS011;29430;52.924;-2.388;2023-11-21T02:23:43;0.10;;;0.00;;
43803;SDS011;29430;52.924;-2.388;2023-11-21T02:28:36;0.65;;;0.10;;
43803;SDS011;29430;52.924;-2.388;2023-11-21T02:33:30;0.32;;;0.10;;
43803;SDS011;29430;52.924;-2.388;2023-11-21T02:38:25;0.43;;;0.00;;
43803;SDS011;29430;52.924;-2.388;2023-11-21T02:43:17;0.40;;;0.10;;
43803;SDS011;29430;52.924;-2.388;2023-11-21T02:48:09;0.15;;;0.00;;
43803;SDS011;29430;52.924;-2.388;2023-11-21T02:53:01;0.30;;;0.10;;
43803;SDS011;29430;52.924;-2.388;2023-11-21T02:57:52;0.40;;;0.00;;
43803;SDS011;29430;52.924;-2.388;2023-11-21T03:02:45;1.40;;;0.03;;
43803;SDS011;29430;52.924;-2.388;2023-11-21T03:07:39;0.32;;;0.00;;
43803;SDS011;29430;52.924;-2.388;2023-11-21T03:12:31;1.20;;;0.10;;
43803;SDS011;29430;52.924;-2.388;2023-11-21T03:17:23;0.10;;;0.00;;
43803;SDS011;29430;52.924;-2.388;2023-11-21T03:22:16;0.30;;;0.08;;
43803;SDS011;29430;52.924;-2.388;2023-11-21T03:27:07;1.33;;;0.05;;
43803;SDS011;29430;52.924;-2.388;2023-11-21T03:31:59;3.40;;;0.10;;
43803;SDS011;29430;52.924;-2.388;2023-11-21T03:36:51;0.30;;;0.00;;
43803;SDS011;29430;52.924;-2.388;2023-11-21T03:41:44;2.13;;;0.22;;
43803;SDS011;29430;52.924;-2.388;2023-11-21T03:46:36;1.17;;;0.10;;
43803;SDS011;29430;52.924;-2.388;2023-11-21T03:51:28;1.27;;;0.00;;
43803;SDS011;29430;52.924;-2.388;2023-11-21T03:56:19;0.47;;;0.10;;
43803;SDS011;29430;52.924;-2.388;2023-11-21T04:01:18;0.60;;;0.32;;
43803;SDS011;29430;52.924;-2.388;2023-11-21T04:06:13;1.10;;;0.00;;
43803;SDS011;29430;52.924;-2.388;2023-11-21T04:11:05;0.15;;;0.00;;
43803;SDS011;29430;52.924;-2.388;2023-11-21T04:15:56;0.15;;;0.00;;
43803;SDS011;29430;52.924;-2.388;2023-11-21T04:20:48;0.28;;;0.00;;
43803;SDS011;29430;52.924;-2.388;2023-11-21T04:25:40;0.68;;;0.00;;
43803;SDS011;29430;52.924;-2.388;2023-11-21T04:30:32;0.38;;;0.00;;
43803;SDS011;29430;52.924;-2.388;2023-11-21T04:35:24;0.20;;;0.00;;
43803;SDS011;29430;52.924;-2.388;2023-11-21T04:40:15;0.60;;;0.00;;
43803;SDS011;29430;52.924;-2.388;2023-11-21T04:45:07;0.20;;;0.00;;
43803;SDS011;29430;52.924;-2.388;2023-11-21T04:50:02;0.30;;;0.00;;
43803;SDS011;29430;52.924;-2.388;2023-11-21T04:54:54;0.15;;;0.00;;
43803;SDS011;29430;52.924;-2.388;2023-11-21T04:59:48;0.43;;;0.05;;
43803;SDS011;29430;52.924;-2.388;2023-11-21T05:04:40;0.32;;;0.00;;
43803;SDS011;29430;52.924;-2.388;2023-11-21T05:09:34;0.15;;;0.00;;
43803;SDS011;29430;52.924;-2.388;2023-11-21T05:14:26;0.68;;;0.00;;
43803;SDS011;29430;52.924;-2.388;2023-11-21T05:19:18;0.35;;;0.00;;
43803;SDS011;29430;52.924;-2.388;2023-11-21T05:24:10;0.10;;;0.00;;
43803;SDS011;29430;52.924;-2.388;2023-11-21T05:29:02;0.52;;;0.00;;
43803;SDS011;29430;52.924;-2.388;2023-11-21T05:33:54;0.28;;;0.00;;
43803;SDS011;29430;52.924;-2.388;2023-11-21T05:38:45;0.35;;;0.00;;
43803;SDS011;29430;52.924;-2.388;2023-11-21T05:43:37;1.75;;;0.00;;
43803;SDS011;29430;52.924;-2.388;2023-11-21T05:48:29;0.35;;;0.00;;
43803;SDS011;29430;52.924;-2.388;2023-11-21T05:53:21;0.10;;;0.00;;
43803;SDS011;29430;52.924;-2.388;2023-11-21T05:58:13;0.30;;;0.08;;
43803;SDS011;29430;52.924;-2.388;2023-11-21T06:03:05;0.40;;;0.00;;
43803;SDS011;29430;52.924;-2.388;2023-11-21T06:07:57;0.43;;;0.00;;
43803;SDS011;29430;52.924;-2.388;2023-11-21T06:12:52;0.03;;;0.00;;
43803;SDS011;29430;52.924;-2.388;2023-11-21T06:17:45;1.92;;;0.08;;
43803;SDS011;29430;52.924;-2.388;2023-11-21T06:22:41;0.15;;;0.00;;
43803;SDS011;29430;52.924;-2.388;2023-11-21T06:27:37;0.75;;;0.00;;
43803;SDS011;29430;52.924;-2.388;2023-11-21T06:32:29;0.00;;;0.00;;
43803;SDS011;29430;52.924;-2.388;2023-11-21T06:37:21;1.15;;;0.00;;
43803;SDS011;29430;52.924;-2.388;2023-11-21T06:42:14;0.40;;;0.00;;
43803;SDS011;29430;52.924;-2.388;2023-11-21T06:47:07;1.13;;;0.00;;
43803;SDS011;29430;52.924;-2.388;2023-11-21T06:51:59;1.10;;;0.00;;
43803;SDS011;29430;52.924;-2.388;2023-11-21T06:56:50;0.22;;;0.00;;
43803;SDS011;29430;52.924;-2.388;2023-11-21T07:01:44;0.15;;;0.00;;
43803;SDS011;29430;52.924;-2.388;2023-11-21T07:06:36;4.10;;;0.50;;
43803;SDS011;29430;52.924;-2.388;2023-11-21T07:11:29;1.23;;;0.00;;
43803;SDS011;29430;52.924;-2.388;2023-11-21T07:16:20;2.88;;;0.00;;
43803;SDS011;29430;52.924;-2.388;2023-11-21T07:21:13;2.13;;;0.05;;
43803;SDS011;29430;52.924;-2.388;2023-11-21T07:26:06;0.22;;;0.00;;
43803;SDS011;29430;52.924;-2.388;2023-11-21T07:31:00;1.65;;;0.00;;
43803;SDS011;29430;52.924;-2.388;2023-11-21T07:35:52;2.95;;;0.10;;
43803;SDS011;29430;52.924;-2.388;2023-11-21T07:40:44;1.10;;;0.10;;
43803;SDS011;29430;52.924;-2.388;2023-11-21T07:45:36;1.35;;;0.00;;
43803;SDS011;29430;52.924;-2.388;2023-11-21T07:50:28;1.38;;;0.00;;
43803;SDS011;29430;52.924;-2.388;2023-11-21T07:55:20;2.13;;;0.05;;
43803;SDS011;29430;52.924;-2.388;2023-11-21T08:00:12;1.45;;;0.00;;
43803;SDS011;29430;52.924;-2.388;2023-11-21T08:05:06;1.55;;;0.03;;
43803;SDS011;29430;52.924;-2.388;2023-11-21T08:10:05;0.20;;;0.00;;
43803;SDS011;29430;52.924;-2.388;2023-11-21T08:14:58;0.57;;;0.10;;
43803;SDS011;29430;52.924;-2.388;2023-11-21T08:19:49;3.05;;;0.10;;
43803;SDS011;29430;52.924;-2.388;2023-11-21T08:24:43;1.00;;;0.00;;
43803;SDS011;29430;52.924;-2.388;2023-11-21T08:29:35;1.00;;;0.10;;
43803;SDS011;29430;52.924;-2.388;2023-11-21T08:34:27;2.90;;;1.10;;
43803;SDS011;29430;52.924;-2.388;2023-11-21T08:39:20;1.00;;;0.10;;
43803;SDS011;29430;52.924;-2.388;2023-11-21T08:44:11;0.82;;;0.03;;
43803;SDS011;29430;52.924;-2.388;2023-11-21T08:49:03;0.88;;;0.10;;
43803;SDS011;29430;52.924;-2.388;2023-11-21T08:53:55;0.70;;;0.10;;
43803;SDS011;29430;52.924;-2.388;2023-11-21T08:58:51;1.55;;;0.20;;
43803;SDS011;29430;52.924;-2.388;2023-11-21T09:03:44;2.03;;;0.10;;
43803;SDS011;29430;52.924;-2.388;2023-11-21T09:08:35;1.25;;;0.10;;
43803;SDS011;29430;52.924;-2.388;2023-11-21T09:13:27;1.25;;;0.15;;
43803;SDS011;29430;52.924;-2.388;2023-11-21T09:18:21;1.80;;;0.10;;
43803;SDS011;29430;52.924;-2.388;2023-11-21T09:23:13;3.40;;;0.10;;
43803;SDS011;29430;52.924;-2.388;2023-11-21T09:28:05;1.15;;;0.10;;
43803;SDS011;29430;52.924;-2.388;2023-11-21T09:32:59;1.25;;;0.10;;
43803;SDS011;29430;52.924;-2.388;2023-11-21T09:37:52;0.80;;;0.10;;
43803;SDS011;29430;52.924;-2.388;2023-11-21T09:42:48;0.60;;;0.03;;
43803;SDS011;29430;52.924;-2.388;2023-11-21T09:47:45;1.95;;;0.10;;
43803;SDS011;29430;52.924;-2.388;2023-11-21T09:53:13;1.55;;;0.10;;
43803;SDS011;29430;52.924;-2.388;2023-11-21T09:58:09;1.27;;;0.10;;
43803;SDS011;29430;52.924;-2.388;2023-11-21T10:03:03;2.05;;;0.10;;
43803;SDS011;29430;52.924;-2.388;2023-11-21T10:07:55;1.15;;;0.10;;
43803;SDS011;29430;52.924;-2.388;2023-11-21T10:12:50;3.30;;;0.20;;
43803;SDS011;29430;52.924;-2.388;2023-11-21T10:17:44;0.63;;;0.10;;
43803;SDS011;29430;52.924;-2.388;2023-11-21T10:22:42;0.63;;;0.10;;
43803;SDS011;29430;52.924;-2.388;2023-11-21T10:27:34;2.55;;;0.57;;
43803;SDS011;29430;52.924;-2.388;2023-11-21T10:32:28;0.90;;;0.10;;
43803;SDS011;29430;52.924;-2.388;2023-11-21T10:37:23;3.50;;;0.20;;
43803;SDS011;29430;52.924;-2.388;2023-11-21T10:42:15;1.55;;;0.17;;
43803;SDS011;29430;52.924;-2.388;2023-11-21T10:47:09;4.93;;;0.17;;
43803;SDS011;29430;52.924;-2.388;2023-11-21T10:52:03;1.58;;;0.15;;
43803;SDS011;29430;52.924;-2.388;2023-11-21T10:56:59;3.92;;;0.20;;
43803;SDS011;29430;52.924;-2.388;2023-11-21T11:01:52;1.23;;;0.20;;
43803;SDS011;29430;52.924;-2.388;2023-11-21T11:06:48;2.95;;;0.17;;
43803;SDS011;29430;52.924;-2.388;2023-11-21T11:11:45;2.55;;;0.17;;
43803;SDS011;29430;52.924;-2.388;2023-11-21T11:16:41;1.73;;;0.20;;
43803;SDS011;29430;52.924;-2.388;2023-11-21T11:21:42;2.55;;;0.22;;
43803;SDS011;29430;52.924;-2.388;2023-11-21T11:26:51;4.47;;;0.30;;
43803;SDS011;29430;52.924;-2.388;2023-11-21T11:37:02;3.08;;;0.22;;
43803;SDS011;29430;52.924;-2.388;2023-11-21T11:41:56;3.38;;;0.25;;
43803;SDS011;29430;52.924;-2.388;2023-11-21T11:46:52;3.20;;;0.35;;
43803;SDS011;29430;52.924;-2.388;2023-11-21T11:51:44;1.60;;;0.20;;
43803;SDS011;29430;52.924;-2.388;2023-11-21T11:56:36;4.28;;;0.20;;
43803;SDS011;29430;52.924;-2.388;2023-11-21T12:01:30;2.33;;;0.20;;
43803;SDS011;29430;52.924;-2.388;2023-11-21T12:06:32;1.85;;;0.20;;
43803;SDS011;29430;52.924;-2.388;2023-11-21T12:11:30;1.77;;;0.30;;
43803;SDS011;29430;52.924;-2.388;2023-11-21T12:16:26;2.53;;;0.20;;
43803;SDS011;29430;52.924;-2.388;2023-11-21T12:21:19;2.65;;;0.20;;
43803;SDS011;29430;52.924;-2.388;2023-11-21T12:26:12;1.95;;;0.73;;
43803;SDS011;29430;52.924;-2.388;2023-11-21T12:31:04;5.75;;;0.15;;
43803;SDS011;29430;52.924;-2.388;2023-11-21T12:36:12;3.28;;;0.20;;
43803;SDS011;29430;52.924;-2.388;2023-11-21T12:41:03;4.15;;;0.55;;
43803;SDS011;29430;52.924;-2.388;2023-11-21T12:46:12;1.90;;;0.20;;
43803;SDS011;29430;52.924;-2.388;2023-11-21T12:55:58;1.42;;;0.20;;
43803;SDS011;29430;52.924;-2.388;2023-11-21T13:00:49;3.30;;;0.20;;
43803;SDS011;29430;52.924;-2.388;2023-11-21T13:05:43;0.60;;;0.10;;
43803;SDS011;29430;52.924;-2.388;2023-11-21T13:10:40;1.90;;;0.30;;
43803;SDS011;29430;52.924;-2.388;2023-11-21T13:15:40;1.13;;;0.15;;
43803;SDS011;29430;52.924;-2.388;2023-11-21T13:20:40;2.30;;;0.10;;
43803;SDS011;29430;52.924;-2.388;2023-11-21T13:25:32;3.95;;;0.20;;
43803;SDS011;29430;52.924;-2.388;2023-11-21T13:30:25;3.05;;;1.10;;
43803;SDS011;29430;52.924;-2.388;2023-11-21T13:35:24;1.02;;;0.20;;
43803;SDS011;29430;52.924;-2.388;2023-11-21T13:40:24;1.00;;;0.20;;
43803;SDS011;29430;52.924;-2.388;2023-11-21T13:45:18;1.08;;;0.10;;
43803;SDS011;29430;52.924;-2.388;2023-11-21T13:50:11;3.30;;;0.20;;
43803;SDS011;29430;52.924;-2.388;2023-11-21T13:55:08;2.00;;;0.10;;
43803;SDS011;29430;52.924;-2.388;2023-11-21T14:00:06;2.42;;;0.20;;
43803;SDS011;29430;52.924;-2.388;2023-11-21T14:05:02;3.10;;;0.20;;
43803;SDS011;29430;52.924;-2.388;2023-11-21T14:14:52;2.58;;;0.13;;
43803;SDS011;29430;52.924;-2.388;2023-11-21T14:19:46;4.20;;;0.20;;
43803;SDS011;29430;52.924;-2.388;2023-11-21T14:24:39;1.38;;;0.00;;
43803;SDS011;29430;52.924;-2.388;2023-11-21T14:29:36;1.48;;;0.10;;
43803;SDS011;29430;52.924;-2.388;2023-11-21T14:34:31;4.88;;;0.10;;
43803;SDS011;29430;52.924;-2.388;2023-11-21T14:39:22;1.48;;;0.10;;
43803;SDS011;29430;52.924;-2.388;2023-11-21T14:44:15;1.83;;;0.10;;
43803;SDS011;29430;52.924;-2.388;2023-11-21T14:49:08;1.73;;;0.20;;
43803;SDS011;29430;52.924;-2.388;2023-11-21T14:54:20;1.35;;;0.20;;
43803;SDS011;29430;52.924;-2.388;2023-11-21T14:59:26;1.65;;;0.17;;
43803;SDS011;29430;52.924;-2.388;2023-11-21T15:04:18;0.85;;;0.20;;
43803;SDS011;29430;52.924;-2.388;2023-11-21T15:09:27;3.38;;;0.85;;
43803;SDS011;29430;52.924;-2.388;2023-11-21T15:14:25;3.27;;;0.23;;
43803;SDS011;29430;52.924;-2.388;2023-11-21T15:19:22;1.23;;;0.20;;
43803;SDS011;29430;52.924;-2.388;2023-11-21T15:24:17;4.05;;;0.95;;
43803;SDS011;29430;52.924;-2.388;2023-11-21T15:29:09;1.52;;;0.20;;
43803;SDS011;29430;52.924;-2.388;2023-11-21T15:34:02;4.82;;;0.50;;
43803;SDS011;29430;52.924;-2.388;2023-11-21T15:38:56;1.63;;;0.13;;
43803;SDS011;29430;52.924;-2.388;2023-11-21T15:43:48;2.97;;;0.30;;
43803;SDS011;29430;52.924;-2.388;2023-11-21T15:48:41;6.45;;;0.50;;
43803;SDS011;29430;52.924;-2.388;2023-11-21T15:53:40;2.92;;;0.30;;
43803;SDS011;29430;52.924;-2.388;2023-11-21T15:58:32;1.90;;;0.20;;
43803;SDS011;29430;52.924;-2.388;2023-11-21T16:03:25;1.95;;;0.30;;
43803;SDS011;29430;52.924;-2.388;2023-11-21T16:08:17;3.22;;;0.20;;
43803;SDS011;29430;52.924;-2.388;2023-11-21T16:13:09;1.05;;;0.20;;
43803;SDS011;29430;52.924;-2.388;2023-11-21T16:18:04;1.90;;;0.20;;
43803;SDS011;29430;52.924;-2.388;2023-11-21T16:22:56;0.73;;;0.10;;
43803;SDS011;29430;52.924;-2.388;2023-11-21T16:27:48;1.15;;;0.20;;
43803;SDS011;29430;52.924;-2.388;2023-11-21T16:32:40;1.30;;;0.20;;
43803;SDS011;29430;52.924;-2.388;2023-11-21T16:37:32;0.80;;;0.30;;
43803;SDS011;29430;52.924;-2.388;2023-11-21T16:42:24;1.27;;;0.20;;
43803;SDS011;29430;52.924;-2.388;2023-11-21T16:47:19;1.80;;;0.20;;
43803;SDS011;29430;52.924;-2.388;2023-11-21T16:52:12;3.60;;;0.35;;
43803;SDS011;29430;52.924;-2.388;2023-11-21T16:57:03;3.60;;;0.30;;
43803;SDS011;29430;52.924;-2.388;2023-11-21T17:01:55;4.30;;;0.57;;
43803;SDS011;29430;52.924;-2.388;2023-11-21T17:06:47;3.17;;;0.35;;
43803;SDS011;29430;52.924;-2.388;2023-11-21T17:11:40;2.92;;;0.40;;
43803;SDS011;29430;52.924;-2.388;2023-11-21T17:16:32;2.65;;;0.40;;
43803;SDS011;29430;52.924;-2.388;2023-11-21T17:21:24;2.45;;;0.50;;
43803;SDS011;29430;52.924;-2.388;2023-11-21T17:26:23;3.20;;;0.60;;
43803;SDS011;29430;52.924;-2.388;2023-11-21T17:31:15;2.17;;;0.60;;
43803;SDS011;29430;52.924;-2.388;2023-11-21T17:36:07;4.80;;;2.20;;
43803;SDS011;29430;52.924;-2.388;2023-11-21T17:41:01;8.15;;;4.15;;
43803;SDS011;29430;52.924;-2.388;2023-11-21T17:45:52;8.57;;;2.13;;
43803;SDS011;29430;52.924;-2.388;2023-11-21T17:50:44;3.10;;;1.05;;
43803;SDS011;29430;52.924;-2.388;2023-11-21T17:55:37;2.70;;;1.10;;
43803;SDS011;29430;52.924;-2.388;2023-11-21T18:00:28;3.85;;;1.27;;
43803;SDS011;29430;52.924;-2.388;2023-11-21T18:05:20;5.03;;;1.17;;
43803;SDS011;29430;52.924;-2.388;2023-11-21T18:10:14;3.08;;;1.27;;
43803;SDS011;29430;52.924;-2.388;2023-11-21T18:15:07;3.03;;;0.80;;
43803;SDS011;29430;52.924;-2.388;2023-11-21T18:19:59;2.53;;;0.80;;
43803;SDS011;29430;52.924;-2.388;2023-11-21T18:24:51;1.73;;;0.60;;
43803;SDS011;29430;52.924;-2.388;2023-11-21T18:29:48;2.83;;;0.68;;
43803;SDS011;29430;52.924;-2.388;2023-11-21T18:34:40;2.58;;;0.90;;
43803;SDS011;29430;52.924;-2.388;2023-11-21T18:39:32;3.42;;;1.02;;
43803;SDS011;29430;52.924;-2.388;2023-11-21T18:44:25;8.95;;;1.50;;
43803;SDS011;29430;52.924;-2.388;2023-11-21T18:49:18;3.03;;;1.50;;
43803;SDS011;29430;52.924;-2.388;2023-11-21T18:54:09;4.00;;;1.30;;
43803;SDS011;29430;52.924;-2.388;2023-11-21T18:59:01;5.32;;;1.45;;
43803;SDS011;29430;52.924;-2.388;2023-11-21T19:03:53;4.38;;;1.55;;
43803;SDS011;29430;52.924;-2.388;2023-11-21T19:08:46;5.28;;;1.85;;
43803;SDS011;29430;52.924;-2.388;2023-11-21T19:13:38;5.47;;;2.75;;
43803;SDS011;29430;52.924;-2.388;2023-11-21T19:18:30;5.68;;;2.50;;
43803;SDS011;29430;52.924;-2.388;2023-11-21T19:23:22;4.88;;;1.83;;
43803;SDS011;29430;52.924;-2.388;2023-11-21T19:28:15;3.53;;;1.55;;
43803;SDS011;29430;52.924;-2.388;2023-11-21T19:33:08;18.77;;;11.10;;
43803;SDS011;29430;52.924;-2.388;2023-11-21T19:38:00;5.68;;;3.00;;
43803;SDS011;29430;52.924;-2.388;2023-11-21T19:42:52;6.10;;;3.30;;
43803;SDS011;29430;52.924;-2.388;2023-11-21T19:47:43;5.10;;;2.53;;
43803;SDS011;29430;52.924;-2.388;2023-11-21T19:52:36;4.53;;;1.90;;
43803;SDS011;29430;52.924;-2.388;2023-11-21T19:57:31;3.50;;;1.40;;
43803;SDS011;29430;52.924;-2.388;2023-11-21T20:02:24;4.63;;;1.60;;
43803;SDS011;29430;52.924;-2.388;2023-11-21T20:07:17;3.72;;;0.98;;
43803;SDS011;29430;52.924;-2.388;2023-11-21T20:12:12;3.33;;;1.25;;
43803;SDS011;29430;52.924;-2.388;2023-11-21T20:17:04;3.13;;;1.17;;
43803;SDS011;29430;52.924;-2.388;2023-11-21T20:21:56;3.63;;;1.10;;
43803;SDS011;29430;52.924;-2.388;2023-11-21T20:26:48;3.78;;;1.13;;
43803;SDS011;29430;52.924;-2.388;2023-11-21T20:31:40;4.07;;;1.20;;
43803;SDS011;29430;52.924;-2.388;2023-11-21T20:36:33;5.13;;;1.75;;
43803;SDS011;29430;52.924;-2.388;2023-11-21T20:41:25;6.88;;;2.60;;
43803;SDS011;29430;52.924;-2.388;2023-11-21T20:46:19;5.95;;;2.75;;
43803;SDS011;29430;52.924;-2.388;2023-11-21T20:51:11;13.38;;;6.80;;
43803;SDS011;29430;52.924;-2.388;2023-11-21T20:56:03;12.73;;;6.47;;
43803;SDS011;29430;52.924;-2.388;2023-11-21T21:00:55;9.38;;;5.13;;
43803;SDS011;29430;52.924;-2.388;2023-11-21T21:05:47;10.18;;;5.47;;
43803;SDS011;29430;52.924;-2.388;2023-11-21T21:10:39;11.27;;;5.70;;
43803;SDS011;29430;52.924;-2.388;2023-11-21T21:15:32;10.27;;;5.43;;
43803;SDS011;29430;52.924;-2.388;2023-11-21T21:20:24;10.50;;;5.32;;
43803;SDS011;29430;52.924;-2.388;2023-11-21T21:25:16;12.93;;;6.32;;
43803;SDS011;29430;52.924;-2.388;2023-11-21T21:30:08;12.00;;;5.90;;
43803;SDS011;29430;52.924;-2.388;2023-11-21T21:35:01;12.20;;;6.00;;
43803;SDS011;29430;52.924;-2.388;2023-11-21T21:39:56;11.35;;;6.13;;
43803;SDS011;29430;52.924;-2.388;2023-11-21T21:44:49;13.23;;;6.47;;
43803;SDS011;29430;52.924;-2.388;2023-11-21T21:49:41;10.80;;;6.38;;
43803;SDS011;29430;52.924;-2.388;2023-11-21T21:54:33;8.80;;;5.07;;
43803;SDS011;29430;52.924;-2.388;2023-11-21T21:59:25;9.43;;;4.00;;
43803;SDS011;29430;52.924;-2.388;2023-11-21T22:04:18;7.60;;;4.05;;
43803;SDS011;29430;52.924;-2.388;2023-11-21T22:09:10;10.05;;;4.57;;
43803;SDS011;29430;52.924;-2.388;2023-11-21T22:14:03;9.68;;;5.05;;
43803;SDS011;29430;52.924;-2.388;2023-11-21T22:18:55;8.88;;;4.80;;
43803;SDS011;29430;52.924;-2.388;2023-11-21T22:23:47;8.90;;;4.65;;
43803;SDS011;29430;52.924;-2.388;2023-11-21T22:28:38;7.75;;;4.10;;
43803;SDS011;29430;52.924;-2.388;2023-11-21T22:33:30;11.80;;;5.63;;
43803;SDS011;29430;52.924;-2.388;2023-11-21T22:38:22;7.65;;;4.00;;
43803;SDS011;29430;52.924;-2.388;2023-11-21T22:43:14;6.68;;;2.90;;
43803;SDS011;29430;52.924;-2.388;2023-11-21T22:48:07;6.57;;;3.67;;
43803;SDS011;29430;52.924;-2.388;2023-11-21T22:53:00;8.73;;;3.97;;
43803;SDS011;29430;52.924;-2.388;2023-11-21T22:57:52;8.55;;;4.47;;
43803;SDS011;29430;52.924;-2.388;2023-11-21T23:02:45;10.95;;;3.28;;
43803;SDS011;29430;52.924;-2.388;2023-11-21T23:07:37;9.60;;;3.67;;
43803;SDS011;29430;52.924;-2.388;2023-11-21T23:12:29;7.05;;;3.42;;
43803;SDS011;29430;52.924;-2.388;2023-11-21T23:17:21;6.57;;;3.55;;
43803;SDS011;29430;52.924;-2.388;2023-11-21T23:22:13;6.13;;;2.78;;
43803;SDS011;29430;52.924;-2.388;2023-11-21T23:27:05;4.55;;;2.05;;
43803;SDS011;29430;52.924;-2.388;2023-11-21T23:31:57;3.75;;;1.67;;
43803;SDS011;29430;52.924;-2.388;2023-11-21T23:36:51;5.65;;;1.90;;
43803;SDS011;29430;52.924;-2.388;2023-11-21T23:41:43;5.25;;;1.65;;
43803;SDS011;29430;52.924;-2.388;2023-11-21T23:46:35;3.45;;;1.38;;
43803;SDS011;29430;52.924;-2.388;2023-11-21T23:51:27;3.17;;;1.15;;
43803;SDS011;29430;52.924;-2.388;2023-11-21T23:56:19;3.85;;;1.25;;
